Time;durP1;ratioP1;P1;durP2;ratioP2;P2;SDS_P1;SDS_P2;PMS_P1;PMS_P2;Temp;Humidity;BMP_temperature;BMP_pressure;BME280_temperature;BME280_humidity;BME280_pressure;Samples;Min_cycle;Max_cycle;Signal;HPM_P1;HPM_P2
2022/05/26 00:01:43;;;;;;;43.95;29.67;;;;;;;19.76;100.00;95001.06;5054769;28;20214;-85
2022/05/26 00:04:12;;;;;;;51.60;32.17;;;;;;;19.64;100.00;94993.44;5039212;28;20199;-86
2022/05/26 00:06:43;;;;;;;52.63;31.40;;;;;;;19.57;100.00;94982.34;5035659;28;20201;-85
2022/05/26 00:09:16;;;;;;;52.78;30.95;;;;;;;19.56;100.00;94988.72;5054388;28;20217;-84
2022/05/26 00:11:47;;;;;;;49.97;29.30;;;;;;;19.58;100.00;94986.59;5054915;28;20216;-84
2022/05/26 00:14:16;;;;;;;48.78;31.52;;;;;;;19.57;100.00;94977.09;5051313;28;20218;-83
2022/05/26 00:16:48;;;;;;;51.75;31.48;;;;;;;19.63;100.00;94985.78;5050998;28;20297;-82
2022/05/26 00:19:21;;;;;;;47.25;30.25;;;;;;;19.52;100.00;94973.66;5054091;28;20523;-82
2022/05/26 00:21:51;;;;;;;49.67;30.67;;;;;;;19.65;100.00;94989.72;5054210;28;20244;-82
2022/05/26 00:24:25;;;;;;;51.15;31.35;;;;;;;19.52;100.00;94982.38;5054096;28;20269;-83
2022/05/26 00:26:57;;;;;;;49.55;30.10;;;;;;;19.40;100.00;94979.22;5048051;28;20207;-86
2022/05/26 00:29:26;;;;;;;51.42;30.67;;;;;;;19.36;100.00;94975.50;5033715;28;20309;-86
2022/05/26 00:31:56;;;;;;;49.75;30.73;;;;;;;19.34;100.00;94972.31;5046064;28;20210;-85
2022/05/26 00:34:24;;;;;;;55.08;32.58;;;;;;;19.32;100.00;94982.34;5047118;28;20229;-85
2022/05/26 00:36:56;;;;;;;51.17;31.73;;;;;;;19.22;100.00;94967.31;5035952;28;20234;-86
2022/05/26 00:39:28;;;;;;;51.72;31.67;;;;;;;19.23;100.00;94976.81;5033945;28;20657;-84
2022/05/26 00:42:04;;;;;;;55.03;31.60;;;;;;;19.22;100.00;94982.34;5053380;28;20229;-83
2022/05/26 00:44:33;;;;;;;52.35;31.17;;;;;;;19.25;100.00;94979.19;5073221;28;20200;-85
2022/05/26 00:47:11;;;;;;;50.38;31.65;;;;;;;19.24;100.00;94982.88;5064427;28;20232;-84
2022/05/26 00:49:45;;;;;;;50.75;30.77;;;;;;;19.25;100.00;94987.88;5070700;28;20232;-84
2022/05/26 00:52:18;;;;;;;55.22;31.13;;;;;;;19.26;100.00;94989.47;5066643;28;20656;-84
2022/05/26 00:54:54;;;;;;;55.38;31.80;;;;;;;19.23;100.00;94976.81;5073705;28;20201;-84
2022/05/26 00:57:28;;;;;;;52.53;31.85;;;;;;;19.29;100.00;94982.88;5074097;28;20203;-84
2022/05/26 01:00:02;;;;;;;53.38;32.72;;;;;;;19.34;100.00;94974.16;5072312;28;20194;-83
2022/05/26 01:02:36;;;;;;;63.72;39.42;;;;;;;19.37;100.00;94981.56;5065003;28;20205;-82
2022/05/26 01:05:12;;;;;;;63.58;38.55;;;;;;;19.34;100.00;94985.50;5059095;28;20197;-83
2022/05/26 01:07:44;;;;;;;59.42;37.53;;;;;;;19.11;100.00;94997.38;5069343;28;20201;-81
2022/05/26 01:10:17;;;;;;;61.90;36.97;;;;;;;19.05;100.00;95002.88;5072845;28;20240;-82
2022/05/26 01:12:48;;;;;;;61.92;35.08;;;;;;;19.05;100.00;95005.50;5072684;28;20270;-81
2022/05/26 01:15:21;;;;;;;57.25;35.20;;;;;;;19.08;100.00;94999.72;5072718;28;20227;-81
2022/05/26 01:18:05;;;;;;;56.65;34.08;;;;;;;19.11;100.00;94999.19;5072895;28;20206;-82
2022/05/26 01:20:56;;;;;;;55.45;34.33;;;;;;;19.19;100.00;95001.34;5054020;28;20231;-82
2022/05/26 01:24:04;;;;;;;58.05;32.67;;;;;;;19.22;100.00;94995.50;5072046;28;20216;-82
2022/05/26 01:27:08;;;;;;;52.83;32.47;;;;;;;19.15;100.00;94990.53;5062213;28;20204;-81
2022/05/26 01:30:13;;;;;;;54.88;32.72;;;;;;;19.22;100.00;95003.41;5065731;28;20221;-81
2022/05/26 01:33:03;;;;;;;51.65;32.03;;;;;;;19.22;100.00;95006.06;5066564;28;20201;-83
2022/05/26 01:35:38;;;;;;;48.83;30.70;;;;;;;19.21;100.00;95010.56;5057487;28;20597;-82
2022/05/26 01:38:20;;;;;;;47.22;31.42;;;;;;;19.15;100.00;95021.34;5069375;28;20201;-82
2022/05/26 01:41:01;;;;;;;54.38;32.08;;;;;;;19.13;100.00;95018.97;5059594;28;20197;-84
2022/05/26 01:43:45;;;;;;;55.97;31.77;;;;;;;19.05;100.00;95008.16;5059423;28;20225;-84
2022/05/26 01:46:25;;;;;;;55.45;32.72;;;;;;;19.08;100.00;95023.44;5072883;28;20189;-83
2022/05/26 01:49:06;;;;;;;52.42;30.98;;;;;;;19.07;100.00;95008.69;5072223;28;20318;-83
2022/05/26 01:51:42;;;;;;;54.83;31.83;;;;;;;19.10;100.00;95002.91;5072414;28;20201;-83
2022/05/26 01:54:20;;;;;;;58.00;33.22;;;;;;;19.03;100.00;95013.69;5072555;28;20288;-85
2022/05/26 01:56:57;;;;;;;54.90;33.45;;;;;;;18.89;100.00;94998.66;5072313;28;20239;-83
2022/05/26 01:59:33;;;;;;;54.45;33.28;;;;;;;18.71;100.00;94994.66;5072157;28;20204;-84
2022/05/26 02:02:08;;;;;;;53.40;32.50;;;;;;;18.56;100.00;94998.03;5072173;28;20205;-83
2022/05/26 02:04:42;;;;;;;59.58;32.95;;;;;;;18.46;100.00;94999.81;5066806;28;20582;-84
2022/05/26 02:07:17;;;;;;;59.65;34.17;;;;;;;18.41;100.00;95005.06;5071878;28;20578;-86
2022/05/26 02:09:46;;;;;;;57.90;33.80;;;;;;;18.45;100.00;95004.28;5052472;28;20205;-86
2022/05/26 02:12:18;;;;;;;58.22;33.15;;;;;;;18.50;100.00;94988.53;5071989;28;20215;-84
2022/05/26 02:14:52;;;;;;;55.28;32.63;;;;;;;18.48;100.00;94985.38;5070694;28;20773;-84
2022/05/26 02:17:26;;;;;;;55.38;32.17;;;;;;;18.55;100.00;94993.84;5067001;28;20197;-86
2022/05/26 02:20:06;;;;;;;50.72;32.25;;;;;;;18.57;100.00;94994.38;5071557;28;20189;-86
2022/05/26 02:22:49;;;;;;;55.75;32.10;;;;;;;18.58;100.00;95005.69;5066131;28;20197;-86
2022/05/26 02:25:21;;;;;;;52.05;32.17;;;;;;;18.58;100.00;95003.06;5062607;28;20208;-90
2022/05/26 02:28:03;;;;;;;56.15;31.48;;;;;;;18.62;100.00;95012.00;5066437;28;20210;-88
2022/05/26 02:30:35;;;;;;;52.53;31.13;;;;;;;18.63;100.00;95006.50;5065973;28;20201;-90
2022/05/26 02:33:09;;;;;;;54.38;32.88;;;;;;;18.64;100.00;95012.56;5060656;28;20213;-89
2022/05/26 02:35:44;;;;;;;49.53;32.40;;;;;;;18.68;100.00;95006.50;5064912;28;20201;-89
2022/05/26 02:38:17;;;;;;;53.88;32.42;;;;;;;18.56;100.00;95013.03;5064595;28;20200;-89
2022/05/26 02:40:54;;;;;;;55.50;34.92;;;;;;;18.43;100.00;95005.59;5066988;28;20208;-91
2022/05/26 02:43:26;;;;;;;52.05;33.00;;;;;;;18.30;100.00;94996.31;5059480;28;20229;-88
2022/05/26 02:46:09;;;;;;;58.60;33.63;;;;;;;18.20;100.00;95008.66;5059133;28;20272;-88
2022/05/26 02:48:53;;;;;;;55.50;32.17;;;;;;;18.25;100.00;94998.16;5061370;28;20308;-88
2022/05/26 02:51:30;;;;;;;54.75;32.58;;;;;;;18.21;100.00;95005.75;5060567;28;20205;-87
2022/05/26 02:54:12;;;;;;;55.60;34.30;;;;;;;18.24;100.00;95009.75;5065136;28;20209;-87
2022/05/26 02:56:49;;;;;;;58.95;33.53;;;;;;;18.12;100.00;95010.72;5065304;28;21029;-83
2022/05/26 02:59:25;;;;;;;59.40;33.65;;;;;;;18.13;100.00;95022.03;5064445;28;20197;-83
2022/05/26 03:01:59;;;;;;;59.28;35.40;;;;;;;18.21;100.00;95018.16;5061954;28;20215;-84
2022/05/26 03:04:33;;;;;;;53.35;33.45;;;;;;;18.23;100.00;95016.84;5063402;28;20284;-84
2022/05/26 03:07:11;;;;;;;59.55;33.95;;;;;;;18.26;100.00;95021.59;5062891;28;20206;-85
2022/05/26 03:09:44;;;;;;;63.33;34.78;;;;;;;18.23;100.00;95023.94;5063778;28;20228;-86
2022/05/26 03:12:24;;;;;;;56.70;34.60;;;;;;;18.25;100.00;95027.88;5060026;28;20731;-83
2022/05/26 03:14:54;;;;;;;53.50;34.40;;;;;;;18.34;100.00;95050.03;5059322;28;20204;-83
2022/05/26 03:17:25;;;;;;;57.45;34.55;;;;;;;18.39;100.00;95044.00;5065047;28;20568;-81
2022/05/26 03:19:57;;;;;;;65.32;34.75;;;;;;;18.46;100.00;95049.84;5061543;28;20942;-81
2022/05/26 03:22:30;;;;;;;52.47;33.80;;;;;;;18.44;100.00;95030.88;5064862;28;20217;-81
2022/05/26 03:25:02;;;;;;;55.67;33.47;;;;;;;18.51;100.00;95045.41;5063164;28;20656;-81
2022/05/26 03:27:32;;;;;;;61.70;33.50;;;;;;;18.58;100.00;95045.97;5059711;28;20201;-81
2022/05/26 03:30:06;;;;;;;64.63;33.88;;;;;;;18.52;100.00;95040.94;5062457;28;20210;-82
2022/05/26 03:32:36;;;;;;;62.55;33.33;;;;;;;18.57;100.00;95051.50;5063693;28;20284;-84
2022/05/26 03:40:52;;;;;;;56.42;35.05;;;;;;;18.61;100.00;95034.13;5065758;28;20193;-83
2022/05/26 03:43:25;;;;;;;56.00;33.22;;;;;;;18.64;100.00;95052.81;5060898;28;20249;-83
2022/05/26 03:45:54;;;;;;;64.25;37.85;;;;;;;18.52;100.00;95056.75;5061073;28;20229;-83
2022/05/26 03:48:23;;;;;;;64.72;40.03;;;;;;;18.41;100.00;95044.56;5062185;28;20714;-83
2022/05/26 03:50:53;;;;;;;66.97;40.42;;;;;;;18.52;100.00;95068.06;5060968;28;20229;-84
2022/05/26 03:53:25;;;;;;;68.68;40.00;;;;;;;18.52;100.00;95069.91;5064374;28;20228;-86
2022/05/26 03:55:55;;;;;;;66.13;41.72;;;;;;;18.53;100.00;95074.91;5062010;28;20197;-75
2022/05/26 03:58:25;;;;;;;69.72;40.63;;;;;;;18.56;100.00;95082.28;5062025;28;20213;-75
2022/05/26 04:00:53;;;;;;;72.35;41.60;;;;;;;18.59;100.00;95088.88;5056521;28;20193;-75
2022/05/26 04:03:21;;;;;;;76.43;41.33;;;;;;;18.57;100.00;95086.50;5068422;28;20212;-74
2022/05/26 04:05:52;;;;;;;70.45;40.63;;;;;;;18.63;100.00;95089.97;5068345;28;20197;-74
2022/05/26 04:08:25;;;;;;;63.55;38.22;;;;;;;18.61;100.00;95087.56;5068531;28;20207;-73
2022/05/26 04:10:55;;;;;;;71.53;40.67;;;;;;;18.66;100.00;95087.59;5068543;28;20229;-74
2022/05/26 04:13:24;;;;;;;69.88;40.85;;;;;;;18.79;100.00;95088.19;5068622;28;20213;-75
2022/05/26 04:15:55;;;;;;;75.05;44.10;;;;;;;18.80;100.00;95082.66;5068646;28;20220;-75
2022/05/26 04:18:26;;;;;;;90.47;50.83;;;;;;;18.80;100.00;95077.38;5068315;28;20601;-75
2022/05/26 04:21:07;;;;;;;93.45;52.40;;;;;;;18.93;100.00;95094.56;5067428;28;20228;-74
2022/05/26 04:23:40;;;;;;;100.55;62.10;;;;;;;18.93;100.00;95084.78;5061994;28;20708;-76
2022/05/26 04:26:12;;;;;;;86.97;55.20;;;;;;;19.04;100.00;95096.97;5062455;28;20236;-75
2022/05/26 04:28:43;;;;;;;114.20;67.63;;;;;;;19.07;100.00;95099.09;5068251;28;20699;-76
2022/05/26 04:31:12;;;;;;;148.15;87.75;;;;;;;19.13;100.00;95092.75;5067918;28;20235;-75
2022/05/26 04:33:42;;;;;;;140.80;83.40;;;;;;;19.13;100.00;95102.53;5067401;28;20201;-74
2022/05/26 04:36:13;;;;;;;130.35;75.68;;;;;;;19.17;100.00;95096.47;5068251;28;20200;-74
2022/05/26 04:38:45;;;;;;;99.38;57.20;;;;;;;19.17;100.00;95107.00;5067839;28;20669;-74
2022/05/26 04:41:16;;;;;;;81.40;46.47;;;;;;;19.21;100.00;95102.81;5068055;28;20591;-75
2022/05/26 04:43:45;;;;;;;80.45;47.60;;;;;;;19.27;100.00;95109.69;5069620;28;20225;-74
2022/05/26 04:46:17;;;;;;;78.07;44.10;;;;;;;19.09;100.00;95088.28;5071944;28;20209;-74
2022/05/26 04:48:47;;;;;;;70.00;42.25;;;;;;;19.18;100.00;95097.25;5071298;28;20209;-72
2022/05/26 04:51:16;;;;;;;73.68;41.50;;;;;;;19.18;100.00;95094.63;5070849;28;20232;-74
2022/05/26 04:53:46;;;;;;;74.32;40.38;;;;;;;19.24;100.00;95098.84;5071889;28;20212;-73
2022/05/26 04:56:15;;;;;;;66.07;38.10;;;;;;;19.30;100.00;95099.66;5071912;28;20209;-74
2022/05/26 04:58:44;;;;;;;64.00;37.38;;;;;;;19.28;100.00;95100.69;5071299;28;20209;-73
2022/05/26 05:01:17;;;;;;;73.10;38.28;;;;;;;19.32;100.00;95105.44;5071155;28;20202;-74
2022/05/26 05:03:46;;;;;;;64.53;36.65;;;;;;;19.37;100.00;95106.25;5072167;28;20193;-74
2022/05/26 05:06:17;;;;;;;61.40;36.47;;;;;;;19.36;100.00;95102.03;5071499;28;20554;-73
2022/05/26 05:08:47;;;;;;;64.68;34.42;;;;;;;19.44;100.00;95098.13;5070975;28;20985;-73
2022/05/26 05:11:17;;;;;;;54.08;31.70;;;;;;;19.54;100.00;95113.94;5071219;28;20221;-74
2022/05/26 05:13:47;;;;;;;49.92;29.70;;;;;;;19.58;100.00;95113.19;5071271;28;20197;-74
2022/05/26 05:16:21;;;;;;;50.70;29.23;;;;;;;19.62;100.00;95116.88;5071373;28;20275;-88
2022/05/26 05:18:50;;;;;;;60.65;31.45;;;;;;;19.67;100.00;95121.34;5071722;28;20716;-73
2022/05/26 05:21:24;;;;;;;59.13;30.95;;;;;;;19.64;100.00;95120.03;5069991;28;20197;-73
2022/05/26 05:24:02;;;;;;;54.95;30.25;;;;;;;19.71;100.00;95117.91;5070723;28;20205;-73
2022/05/26 05:26:36;;;;;;;55.03;30.58;;;;;;;19.74;100.00;95124.50;5071276;28;20289;-73
2022/05/26 05:29:12;;;;;;;54.50;30.33;;;;;;;19.79;100.00;95121.91;5071681;28;20205;-73
2022/05/26 05:31:46;;;;;;;44.50;29.77;;;;;;;19.87;100.00;95131.13;5070884;28;20695;-74
2022/05/26 05:34:20;;;;;;;59.83;30.58;;;;;;;19.95;100.00;95130.59;5070834;28;20247;-74
2022/05/26 05:36:52;;;;;;;49.28;30.98;;;;;;;19.97;100.00;95142.47;5071079;28;20204;-73
2022/05/26 05:39:24;;;;;;;57.13;30.98;;;;;;;20.04;100.00;95139.56;5070454;28;20213;-73
2022/05/26 05:41:57;;;;;;;55.38;29.00;;;;;;;19.99;100.00;95132.47;5070455;28;20347;-74
2022/05/26 05:44:30;;;;;;;53.38;29.60;;;;;;;20.10;100.00;95149.06;5070670;28;20263;-74
2022/05/26 05:47:01;;;;;;;49.97;29.13;;;;;;;20.03;100.00;95138.78;5070557;28;20197;-74
2022/05/26 05:49:34;;;;;;;53.72;29.45;;;;;;;20.20;100.00;95152.50;5070482;28;20225;-74
2022/05/26 05:52:12;;;;;;;55.70;30.08;;;;;;;20.12;100.00;95158.31;5070467;28;20205;-72
2022/05/26 05:54:45;;;;;;;58.17;29.45;;;;;;;20.22;100.00;95157.53;5070106;28;20201;-78
2022/05/26 05:57:14;;;;;;;52.63;29.92;;;;;;;20.20;100.00;95165.69;5071820;28;20201;-87
2022/05/26 05:59:47;;;;;;;51.88;30.92;;;;;;;20.27;100.00;95168.09;5072794;28;20331;-80
2022/05/26 06:02:17;;;;;;;55.35;30.40;;;;;;;20.27;100.00;95160.97;5064506;28;20280;-73
2022/05/26 06:04:47;;;;;;;53.17;29.50;;;;;;;20.44;100.00;95171.25;5069825;28;20202;-73
2022/05/26 06:07:18;;;;;;;51.80;28.90;;;;;;;20.46;100.00;95163.84;5071715;28;20342;-81
2022/05/26 06:09:52;;;;;;;49.03;26.90;;;;;;;20.56;100.00;95165.69;5070687;28;20869;-85
2022/05/26 06:12:21;;;;;;;47.55;28.00;;;;;;;20.63;100.00;95174.13;5070562;28;20216;-84
2022/05/26 06:14:52;;;;;;;71.43;41.00;;;;;;;20.76;100.00;95177.00;5070234;28;20209;-86
2022/05/26 06:17:21;;;;;;;67.90;33.53;;;;;;;20.85;99.86;95177.25;5070174;28;20207;-83
2022/05/26 06:19:52;;;;;;;66.75;36.55;;;;;;;20.93;97.04;95182.75;5070032;28;20857;-84
2022/05/26 06:22:24;;;;;;;54.50;30.10;;;;;;;21.07;95.70;95190.13;5066634;28;20205;-78
2022/05/26 06:24:59;;;;;;;62.15;27.40;;;;;;;21.10;95.39;95189.59;5066853;28;20601;-80
2022/05/26 06:30:17;;;;;;;188.75;37.03;;;;;;;21.17;95.58;95195.41;5067379;28;20306;-78
2022/05/26 06:38:23;;;;;;;57.83;25.27;;;;;;;21.29;95.59;95204.63;5068798;28;20205;-75
2022/05/26 06:40:54;;;;;;;64.13;25.75;;;;;;;21.45;94.45;95207.97;5068441;28;20201;-74
2022/05/26 06:43:22;;;;;;;59.92;23.85;;;;;;;21.49;94.44;95203.72;5068532;28;20300;-76
2022/05/26 06:45:52;;;;;;;44.67;23.75;;;;;;;21.47;94.92;95200.59;5069170;28;20687;-74
2022/05/26 06:48:21;;;;;;;72.22;24.48;;;;;;;21.57;94.33;95205.00;5068467;28;20205;-74
2022/05/26 06:50:49;;;;;;;51.38;24.45;;;;;;;21.63;92.79;95191.47;5068441;28;20232;-74
2022/05/26 06:53:18;;;;;;;53.38;29.05;;;;;;;21.79;92.59;95205.44;5068995;28;20649;-74
2022/05/26 06:55:47;;;;;;;93.88;30.35;;;;;;;21.79;92.62;95200.91;5069025;28;20228;-73
2022/05/26 06:58:18;;;;;;;84.97;41.53;;;;;;;21.78;91.54;95215.22;5068610;28;20224;-74
2022/05/26 07:00:46;;;;;;;40.25;23.48;;;;;;;21.80;90.85;95218.38;5068132;28;20660;-74
2022/05/26 07:03:16;;;;;;;50.78;21.48;;;;;;;21.78;89.83;95217.06;5054384;28;20594;-74
2022/05/26 07:05:45;;;;;;;46.50;19.83;;;;;;;21.83;89.38;95212.53;5063935;28;20297;-74
2022/05/26 07:08:13;;;;;;;33.22;16.73;;;;;;;21.87;85.85;95221.56;5068320;28;20205;-74
2022/05/26 07:10:42;;;;;;;29.60;16.10;;;;;;;21.95;83.58;95217.53;5065293;28;20320;-75
2022/05/26 07:13:10;;;;;;;29.05;13.90;;;;;;;21.99;78.82;95226.50;5050414;28;20260;-74
2022/05/26 07:15:45;;;;;;;27.42;12.63;;;;;;;22.13;77.12;95221.38;5066498;28;20660;-72
2022/05/26 07:18:17;;;;;;;20.15;9.60;;;;;;;22.18;70.70;95226.63;5065765;28;20228;-76
2022/05/26 07:20:46;;;;;;;24.95;9.00;;;;;;;22.28;69.49;95230.00;5063970;28;20298;-78
2022/05/26 07:23:20;;;;;;;22.55;9.95;;;;;;;22.43;69.65;95223.78;5065705;28;20207;-77
2022/05/26 07:25:51;;;;;;;24.95;8.68;;;;;;;22.70;65.77;95231.28;5064731;28;20197;-78
2022/05/26 07:28:23;;;;;;;13.18;6.60;;;;;;;22.94;62.44;95235.53;5064959;28;20633;-76
2022/05/26 07:30:53;;;;;;;14.88;7.00;;;;;;;23.18;62.05;95224.94;5065262;28;20781;-78
2022/05/26 07:33:23;;;;;;;17.23;6.68;;;;;;;23.24;61.60;95228.31;5064969;28;20534;-75
2022/05/26 07:35:53;;;;;;;14.77;6.10;;;;;;;23.30;61.87;95224.53;5065868;28;20331;-77
2022/05/26 07:41:19;;;;;;;12.55;5.60;;;;;;;23.52;59.20;95222.19;5068325;28;20196;-75
2022/05/26 07:43:52;;;;;;;16.58;6.25;;;;;;;23.62;59.72;95230.81;5067217;28;20248;-76
2022/05/26 07:46:26;;;;;;;24.88;6.45;;;;;;;23.70;60.42;95237.34;5066142;28;20219;-76
2022/05/26 07:48:56;;;;;;;17.52;6.40;;;;;;;23.83;60.81;95225.22;5064862;28;20235;-76
2022/05/26 07:51:29;;;;;;;18.60;6.10;;;;;;;23.94;61.05;95219.50;5064862;28;20675;-75
2022/05/26 07:54:00;;;;;;;14.75;6.20;;;;;;;24.06;60.77;95229.69;5064890;28;20201;-77
2022/05/26 07:56:36;;;;;;;22.55;6.28;;;;;;;24.17;58.70;95225.84;5058741;28;20212;-76
2022/05/26 07:59:09;;;;;;;20.73;5.63;;;;;;;24.21;57.63;95229.50;5064558;28;20234;-76
2022/05/26 08:01:41;;;;;;;16.92;6.22;;;;;;;24.31;58.40;95229.31;5065957;28;20206;-76
2022/05/26 08:04:14;;;;;;;12.90;6.28;;;;;;;24.44;57.99;95243.75;5066221;28;20217;-76
2022/05/26 08:06:49;;;;;;;22.75;8.55;;;;;;;24.48;57.22;95232.25;5065543;28;20233;-75
2022/05/26 08:09:21;;;;;;;19.98;6.00;;;;;;;24.59;56.53;95238.97;5067095;28;20204;-76
2022/05/26 08:11:48;;;;;;;19.48;6.30;;;;;;;24.68;55.81;95231.13;5064733;28;20221;-77
2022/05/26 08:14:17;;;;;;;27.15;7.03;;;;;;;24.72;56.12;95230.25;5065662;28;20201;-76
2022/05/26 08:16:48;;;;;;;14.38;5.63;;;;;;;24.81;55.74;95236.50;5065042;28;20201;-75
2022/05/26 08:19:16;;;;;;;12.15;5.35;;;;;;;24.90;55.48;95230.50;5067691;28;20515;-76
2022/05/26 08:21:47;;;;;;;20.42;6.22;;;;;;;24.98;56.77;95232.50;5070085;28;20571;-75
2022/05/26 08:24:17;;;;;;;14.07;6.05;;;;;;;25.00;56.73;95231.13;5071793;28;20274;-75
2022/05/26 08:26:47;;;;;;;18.95;6.00;;;;;;;25.07;56.24;95236.06;5072900;28;20201;-76
2022/05/26 08:29:21;;;;;;;17.48;6.53;;;;;;;25.16;55.42;95240.41;5072075;28;20244;-77
2022/05/26 08:31:56;;;;;;;21.63;6.70;;;;;;;25.19;55.69;95234.50;5065554;28;20216;-76
2022/05/26 08:34:24;;;;;;;29.33;6.82;;;;;;;25.23;55.48;95245.31;5070201;28;20224;-83
2022/05/26 08:36:52;;;;;;;28.45;7.35;;;;;;;25.23;56.34;95242.66;5065587;28;20201;-81
2022/05/26 08:39:21;;;;;;;16.23;6.40;;;;;;;25.23;56.06;95232.81;5066695;28;21184;-80
2022/05/26 08:41:53;;;;;;;17.83;6.50;;;;;;;25.33;56.17;95242.47;5067299;28;20260;-81
2022/05/26 08:44:31;;;;;;;14.57;6.30;;;;;;;25.37;55.62;95248.78;5062141;28;20208;-79
2022/05/26 08:47:10;;;;;;;16.42;6.82;;;;;;;25.32;56.14;95244.34;5068654;28;20205;-80
2022/05/26 08:49:46;;;;;;;16.15;6.70;;;;;;;25.27;56.90;95248.97;5069187;28;20297;-81
2022/05/26 08:52:20;;;;;;;18.30;7.25;;;;;;;25.25;57.69;95248.50;5071095;28;20229;-80
2022/05/26 08:54:58;;;;;;;17.17;6.05;;;;;;;25.22;55.38;95249.09;5072016;28;20254;-75
2022/05/26 08:57:35;;;;;;;11.93;5.70;;;;;;;25.08;55.81;95240.31;5071314;28;20207;-83
2022/05/26 09:00:09;;;;;;;13.98;5.80;;;;;;;25.14;57.07;95242.56;5069319;28;20266;-74
2022/05/26 09:02:42;;;;;;;16.33;5.88;;;;;;;25.24;55.55;95245.03;5066705;28;20663;-78
2022/05/26 09:05:13;;;;;;;14.65;5.72;;;;;;;25.30;55.57;95253.72;5068612;28;20216;-79
2022/05/26 09:13:37;;;;;;;21.40;5.68;;;;;;;25.55;54.97;95247.13;5068469;28;20299;-76
2022/05/26 09:16:12;;;;;;;17.88;6.20;;;;;;;25.64;55.84;95243.47;5068337;28;20205;-76
2022/05/26 09:18:48;;;;;;;20.30;6.45;;;;;;;25.74;55.19;95247.81;5068440;28;20211;-77
2022/05/26 09:21:25;;;;;;;12.38;5.25;;;;;;;25.85;52.66;95244.63;5067067;28;20282;-77
2022/05/26 09:24:25;;;;;;;16.38;5.38;;;;;;;25.97;52.73;95246.00;5068399;28;20293;-76
2022/05/26 09:27:00;;;;;;;14.48;4.88;;;;;;;25.98;52.68;95239.56;5061678;28;20294;-76
2022/05/26 09:29:30;;;;;;;23.85;6.00;;;;;;;26.04;52.75;95239.16;5062427;28;20308;-76
2022/05/26 09:32:01;;;;;;;10.65;4.90;;;;;;;26.22;52.58;95245.44;5068009;28;20335;-76
2022/05/26 09:34:33;;;;;;;13.73;5.03;;;;;;;26.35;52.08;95247.25;5069888;28;20234;-76
2022/05/26 09:37:04;;;;;;;16.40;5.28;;;;;;;26.47;52.01;95252.84;5068591;28;20213;-75
2022/05/26 09:39:37;;;;;;;17.83;6.22;;;;;;;26.56;51.69;95243.03;5067296;28;20212;-76
2022/05/26 09:42:09;;;;;;;17.70;4.85;;;;;;;26.59;49.48;95250.44;5067259;28;20256;-77
2022/05/26 09:44:53;;;;;;;9.32;5.10;;;;;;;26.62;49.94;95241.81;5067392;28;20219;-76
2022/05/26 09:47:29;;;;;;;8.57;4.60;;;;;;;26.47;51.60;95248.31;5067855;28;20863;-75
2022/05/26 09:50:04;;;;;;;12.77;5.25;;;;;;;26.54;49.65;95247.91;5067816;28;20227;-76
2022/05/26 09:52:45;;;;;;;15.40;5.35;;;;;;;26.64;49.49;95233.53;5067405;28;20227;-76
2022/05/26 09:55:24;;;;;;;17.75;5.05;;;;;;;26.74;50.91;95242.06;5067481;28;20197;-76
2022/05/26 09:58:08;;;;;;;17.52;4.82;;;;;;;26.77;50.58;95238.00;5068099;28;20292;-76
2022/05/26 10:00:44;;;;;;;19.02;5.07;;;;;;;26.78;49.64;95235.00;5061575;28;20288;-77
2022/05/26 10:03:25;;;;;;;14.50;4.50;;;;;;;26.95;48.32;95232.50;5068452;28;20324;-77
2022/05/26 10:06:25;;;;;;;13.90;4.88;;;;;;;27.20;48.15;95231.03;5066447;28;20689;-72
2022/05/26 10:09:06;;;;;;;12.23;4.80;;;;;;;27.51;47.88;95237.13;5066774;28;20214;-76
2022/05/26 10:11:53;;;;;;;12.40;5.13;;;;;;;27.68;45.03;95238.28;5065802;28;20307;-76
2022/05/26 10:14:51;;;;;;;10.27;4.18;;;;;;;27.76;44.71;95232.97;5068113;28;20733;-72
2022/05/26 10:17:32;;;;;;;8.50;4.72;;;;;;;27.81;43.71;95235.47;5060439;28;20202;-72
2022/05/26 10:20:17;;;;;;;10.73;3.90;;;;;;;27.64;42.84;95226.63;5065763;28;20209;-72
2022/05/26 10:23:00;;;;;;;13.27;4.78;;;;;;;27.61;42.35;95230.72;5067886;28;20629;-72
2022/05/26 10:25:35;;;;;;;16.17;4.20;;;;;;;27.87;40.38;95244.13;5069092;28;21151;-72
2022/05/26 10:28:44;;;;;;;10.95;4.25;;;;;;;28.21;40.33;95246.88;5067754;28;20276;-75
2022/05/26 10:31:30;;;;;;;18.08;4.35;;;;;;;28.56;37.60;95243.09;5027692;28;20217;-76
2022/05/26 10:34:21;;;;;;;14.23;5.18;;;;;;;28.80;37.91;95234.59;5068453;28;20201;-76
2022/05/26 10:37:05;;;;;;;12.10;4.30;;;;;;;28.75;39.44;95234.72;5068986;28;20209;-74
2022/05/26 10:39:54;;;;;;;15.68;5.03;;;;;;;28.86;37.48;95224.50;5069058;28;20399;-75
2022/05/26 10:42:30;;;;;;;12.82;3.80;;;;;;;29.04;37.31;95231.34;5068089;28;20297;-75
2022/05/26 10:45:16;;;;;;;12.35;3.75;;;;;;;28.98;36.41;95243.31;5067410;28;20288;-75
2022/05/26 10:47:55;;;;;;;12.80;3.72;;;;;;;29.10;37.51;95240.78;5067203;28;20205;-77
2022/05/26 10:50:31;;;;;;;12.20;3.72;;;;;;;28.99;36.24;95229.63;5066680;28;20619;-77
2022/05/26 10:53:06;;;;;;;12.25;3.55;;;;;;;29.10;37.69;95233.53;5066917;28;20691;-76
2022/05/26 10:55:57;;;;;;;12.15;4.18;;;;;;;28.95;39.55;95217.19;5066496;28;20331;-75
2022/05/26 10:58:37;;;;;;;12.60;4.22;;;;;;;28.81;41.04;95208.56;5066174;28;20672;-74
2022/05/26 11:01:16;;;;;;;12.85;4.65;;;;;;;28.80;42.01;95210.50;5066922;28;20200;-74
2022/05/26 11:03:50;;;;;;;18.80;5.05;;;;;;;29.00;43.30;95217.84;5066410;28;20201;-74
2022/05/26 11:06:29;;;;;;;12.48;4.80;;;;;;;28.95;42.86;95209.94;5066565;28;20227;-75
2022/05/26 11:09:07;;;;;;;15.43;5.22;;;;;;;28.88;43.44;95211.56;5066071;28;20208;-74
2022/05/26 11:11:43;;;;;;;12.98;4.57;;;;;;;28.80;42.82;95223.88;5066138;28;20229;-75
2022/05/26 11:17:26;;;;;;;12.50;4.43;;;;;;;28.75;41.67;95207.97;5060526;28;20220;-75
2022/05/26 11:20:02;;;;;;;15.32;4.70;;;;;;;28.64;41.50;95212.09;5065595;28;20236;-75
2022/05/26 11:22:35;;;;;;;16.08;4.70;;;;;;;28.87;41.24;95221.47;5066248;28;20285;-76
2022/05/26 11:25:09;;;;;;;9.00;3.83;;;;;;;29.19;40.38;95225.47;5068490;28;20571;-76
2022/05/26 11:27:52;;;;;;;13.02;4.68;;;;;;;29.41;41.00;95217.19;5067326;28;20209;-76
2022/05/26 11:36:10;;;;;;;10.80;5.22;;;;;;;29.60;40.49;95200.72;5066829;28;20205;-75
2022/05/26 11:38:46;;;;;;;14.68;5.35;;;;;;;29.79;40.17;95188.44;5065556;28;20201;-74
2022/05/26 11:41:25;;;;;;;29.17;6.10;;;;;;;30.11;40.34;95186.97;5066146;28;20589;-75
2022/05/26 11:44:06;;;;;;;22.02;6.63;;;;;;;30.49;39.86;95202.94;5045855;28;20221;-75
2022/05/26 11:46:56;;;;;;;18.55;5.03;;;;;;;30.78;39.00;95188.59;5040910;28;20206;-80
2022/05/26 11:50:01;;;;;;;9.02;4.80;;;;;;;31.11;38.36;95189.34;5046938;28;20216;-80
2022/05/26 11:53:14;;;;;;;13.30;4.38;;;;;;;31.38;38.23;95207.50;5042547;28;20221;-80
2022/05/26 11:55:54;;;;;;;13.65;4.93;;;;;;;31.53;38.40;95208.75;5032206;28;20202;-80
2022/05/26 11:58:36;;;;;;;16.58;5.72;;;;;;;31.63;38.00;95207.53;5051562;28;20201;-81
2022/05/26 12:01:39;;;;;;;20.92;5.30;;;;;;;31.78;37.57;95217.59;5049232;28;20210;-81
2022/05/26 12:04:30;;;;;;;15.93;6.70;;;;;;;31.98;37.78;95214.75;5050251;28;20255;-81
2022/05/26 12:07:00;;;;;;;14.55;6.53;;;;;;;32.25;37.77;95212.47;5048240;28;20190;-79
2022/05/26 12:09:35;;;;;;;17.40;5.38;;;;;;;32.58;37.86;95205.00;5046040;28;20577;-78
2022/05/26 12:12:07;;;;;;;17.33;9.40;;;;;;;32.46;38.35;95216.56;5047824;28;20294;-79
2022/05/26 12:14:45;;;;;;;14.63;5.70;;;;;;;32.17;37.80;95227.66;5053385;28;20206;-79
2022/05/26 12:17:35;;;;;;;19.63;5.03;;;;;;;31.74;38.39;95222.88;5050774;28;20205;-79
2022/05/26 12:20:07;;;;;;;14.82;6.03;;;;;;;31.30;39.84;95218.38;5052143;28;20217;-80
2022/05/26 12:22:37;;;;;;;16.83;5.22;;;;;;;31.19;40.09;95220.72;5046925;28;20585;-80
2022/05/26 12:25:23;;;;;;;10.25;4.85;;;;;;;30.86;40.35;95223.41;5047473;28;20202;-80